sensor_id;sensor_type;location;lat;lon;timestamp;temperature;humidity
74364;DHT22;62797;49.740;10.154;2022-11-24T00:01:59;6.30;82.20
74364;DHT22;62797;49.740;10.154;2022-11-24T00:04:25;6.20;82.10
74364;DHT22;62797;49.740;10.154;2022-11-24T00:06:50;6.20;82.10
74364;DHT22;62797;49.740;10.154;2022-11-24T00:09:18;6.20;82.60
74364;DHT22;62797;49.740;10.154;2022-11-24T00:11:43;6.10;83.00
74364;DHT22;62797;49.740;10.154;2022-11-24T00:14:12;6.20;82.80
74364;DHT22;62797;49.740;10.154;2022-11-24T00:16:37;6.20;82.90
74364;DHT22;62797;49.740;10.154;2022-11-24T00:19:05;6.30;82.50
74364;DHT22;62797;49.740;10.154;2022-11-24T00:21:32;6.30;82.40
74364;DHT22;62797;49.740;10.154;2022-11-24T00:23:58;6.30;82.20
74364;DHT22;62797;49.740;10.154;2022-11-24T00:26:26;6.30;82.40
74364;DHT22;62797;49.740;10.154;2022-11-24T00:28:57;6.30;82.60
74364;DHT22;62797;49.740;10.154;2022-11-24T00:31:25;6.30;82.60
74364;DHT22;62797;49.740;10.154;2022-11-24T00:33:53;6.30;82.80
74364;DHT22;62797;49.740;10.154;2022-11-24T00:36:21;6.30;82.80
74364;DHT22;62797;49.740;10.154;2022-11-24T00:38:47;6.40;83.00
74364;DHT22;62797;49.740;10.154;2022-11-24T00:41:13;6.40;82.90
74364;DHT22;62797;49.740;10.154;2022-11-24T00:43:38;6.40;82.80
74364;DHT22;62797;49.740;10.154;2022-11-24T00:46:04;6.40;82.80
74364;DHT22;62797;49.740;10.154;2022-11-24T00:48:30;6.40;82.90
74364;DHT22;62797;49.740;10.154;2022-11-24T00:51:01;6.40;82.90
74364;DHT22;62797;49.740;10.154;2022-11-24T00:53:28;6.40;83.00
74364;DHT22;62797;49.740;10.154;2022-11-24T00:55:54;6.30;82.70
74364;DHT22;62797;49.740;10.154;2022-11-24T00:58:20;6.30;82.60
74364;DHT22;62797;49.740;10.154;2022-11-24T01:00:46;6.20;82.20
74364;DHT22;62797;49.740;10.154;2022-11-24T01:03:12;6.10;81.60
74364;DHT22;62797;49.740;10.154;2022-11-24T01:05:39;6.00;81.90
74364;DHT22;62797;49.740;10.154;2022-11-24T01:08:05;5.90;82.00
74364;DHT22;62797;49.740;10.154;2022-11-24T01:10:31;5.80;81.90
74364;DHT22;62797;49.740;10.154;2022-11-24T01:12:57;5.80;82.20
74364;DHT22;62797;49.740;10.154;2022-11-24T01:15:23;5.70;81.40
74364;DHT22;62797;49.740;10.154;2022-11-24T01:17:48;5.60;82.10
74364;DHT22;62797;49.740;10.154;2022-11-24T01:20:14;5.60;82.20
74364;DHT22;62797;49.740;10.154;2022-11-24T01:22:40;5.60;82.20
74364;DHT22;62797;49.740;10.154;2022-11-24T01:25:07;5.50;83.20
74364;DHT22;62797;49.740;10.154;2022-11-24T01:27:33;5.50;82.50
74364;DHT22;62797;49.740;10.154;2022-11-24T01:29:59;5.50;82.50
74364;DHT22;62797;49.740;10.154;2022-11-24T01:32:24;5.40;82.00
74364;DHT22;62797;49.740;10.154;2022-11-24T01:34:50;5.40;82.20
74364;DHT22;62797;49.740;10.154;2022-11-24T01:37:15;5.40;82.60
74364;DHT22;62797;49.740;10.154;2022-11-24T01:39:41;5.40;83.00
74364;DHT22;62797;49.740;10.154;2022-11-24T01:42:06;5.40;83.00
74364;DHT22;62797;49.740;10.154;2022-11-24T01:44:32;5.40;83.20
74364;DHT22;62797;49.740;10.154;2022-11-24T01:49:38;5.50;83.60
74364;DHT22;62797;49.740;10.154;2022-11-24T01:52:21;5.50;83.30
74364;DHT22;62797;49.740;10.154;2022-11-24T01:54:55;5.60;83.50
74364;DHT22;62797;49.740;10.154;2022-11-24T01:57:26;5.60;82.80
74364;DHT22;62797;49.740;10.154;2022-11-24T01:59:58;5.50;83.20
74364;DHT22;62797;49.740;10.154;2022-11-24T02:02:27;5.60;83.30
74364;DHT22;62797;49.740;10.154;2022-11-24T02:04:55;5.60;83.20
74364;DHT22;62797;49.740;10.154;2022-11-24T02:07:22;5.60;82.80
74364;DHT22;62797;49.740;10.154;2022-11-24T02:09:52;5.60;82.80
74364;DHT22;62797;49.740;10.154;2022-11-24T02:12:20;5.50;83.00
74364;DHT22;62797;49.740;10.154;2022-11-24T02:14:45;5.60;83.30
74364;DHT22;62797;49.740;10.154;2022-11-24T02:17:11;5.60;83.20
74364;DHT22;62797;49.740;10.154;2022-11-24T02:22:26;5.70;84.10
74364;DHT22;62797;49.740;10.154;2022-11-24T02:24:55;5.90;84.40
74364;DHT22;62797;49.740;10.154;2022-11-24T02:27:22;6.00;84.30
74364;DHT22;62797;49.740;10.154;2022-11-24T02:29:48;6.10;84.20
74364;DHT22;62797;49.740;10.154;2022-11-24T02:32:14;6.10;84.20
74364;DHT22;62797;49.740;10.154;2022-11-24T02:34:40;6.20;84.10
74364;DHT22;62797;49.740;10.154;2022-11-24T02:37:06;6.20;84.00
74364;DHT22;62797;49.740;10.154;2022-11-24T02:39:31;6.30;84.10
74364;DHT22;62797;49.740;10.154;2022-11-24T02:42:03;6.40;83.80
74364;DHT22;62797;49.740;10.154;2022-11-24T02:44:38;6.40;83.30
74364;DHT22;62797;49.740;10.154;2022-11-24T02:47:11;6.50;83.60
74364;DHT22;62797;49.740;10.154;2022-11-24T02:49:37;6.60;83.60
74364;DHT22;62797;49.740;10.154;2022-11-24T02:52:03;6.60;83.40
74364;DHT22;62797;49.740;10.154;2022-11-24T02:54:28;6.60;83.10
74364;DHT22;62797;49.740;10.154;2022-11-24T02:56:54;6.60;83.10
74364;DHT22;62797;49.740;10.154;2022-11-24T02:59:19;6.70;83.30
74364;DHT22;62797;49.740;10.154;2022-11-24T03:01:45;6.70;83.20
74364;DHT22;62797;49.740;10.154;2022-11-24T03:04:10;6.80;83.30
74364;DHT22;62797;49.740;10.154;2022-11-24T03:06:37;6.80;83.20
74364;DHT22;62797;49.740;10.154;2022-11-24T03:09:03;6.80;83.20
74364;DHT22;62797;49.740;10.154;2022-11-24T03:11:28;6.80;83.10
74364;DHT22;62797;49.740;10.154;2022-11-24T03:13:54;6.80;83.30
74364;DHT22;62797;49.740;10.154;2022-11-24T03:16:20;6.80;83.40
74364;DHT22;62797;49.740;10.154;2022-11-24T03:18:45;6.80;83.90
74364;DHT22;62797;49.740;10.154;2022-11-24T03:21:12;6.90;83.40
74364;DHT22;62797;49.740;10.154;2022-11-24T03:23:38;6.90;83.60
74364;DHT22;62797;49.740;10.154;2022-11-24T03:26:15;6.90;83.70
74364;DHT22;62797;49.740;10.154;2022-11-24T03:28:41;6.90;83.30
74364;DHT22;62797;49.740;10.154;2022-11-24T03:31:07;6.90;83.50
74364;DHT22;62797;49.740;10.154;2022-11-24T03:33:34;6.90;83.30
74364;DHT22;62797;49.740;10.154;2022-11-24T03:35:59;6.80;82.80
74364;DHT22;62797;49.740;10.154;2022-11-24T03:38:25;6.80;83.30
74364;DHT22;62797;49.740;10.154;2022-11-24T03:40:50;6.80;83.40
74364;DHT22;62797;49.740;10.154;2022-11-24T03:43:16;6.80;83.20
74364;DHT22;62797;49.740;10.154;2022-11-24T03:45:48;6.80;83.60
74364;DHT22;62797;49.740;10.154;2022-11-24T03:48:15;6.90;83.90
74364;DHT22;62797;49.740;10.154;2022-11-24T03:50:41;6.90;83.70
74364;DHT22;62797;49.740;10.154;2022-11-24T03:53:08;6.90;83.80
74364;DHT22;62797;49.740;10.154;2022-11-24T03:55:33;6.90;83.80
74364;DHT22;62797;49.740;10.154;2022-11-24T03:57:59;6.90;83.70
74364;DHT22;62797;49.740;10.154;2022-11-24T04:00:25;6.90;84.50
74364;DHT22;62797;49.740;10.154;2022-11-24T04:02:50;6.90;83.80
74364;DHT22;62797;49.740;10.154;2022-11-24T04:05:16;6.90;83.80
74364;DHT22;62797;49.740;10.154;2022-11-24T04:07:41;6.90;83.70
74364;DHT22;62797;49.740;10.154;2022-11-24T04:10:07;6.80;83.30
74364;DHT22;62797;49.740;10.154;2022-11-24T04:12:33;6.80;83.60
74364;DHT22;62797;49.740;10.154;2022-11-24T04:15:08;6.80;83.50
74364;DHT22;62797;49.740;10.154;2022-11-24T04:17:34;6.80;83.50
74364;DHT22;62797;49.740;10.154;2022-11-24T04:20:00;6.80;83.40
74364;DHT22;62797;49.740;10.154;2022-11-24T04:22:25;6.70;83.30
74364;DHT22;62797;49.740;10.154;2022-11-24T04:24:51;6.70;83.30
74364;DHT22;62797;49.740;10.154;2022-11-24T04:27:16;6.70;83.50
74364;DHT22;62797;49.740;10.154;2022-11-24T04:29:42;6.70;83.50
74364;DHT22;62797;49.740;10.154;2022-11-24T04:32:08;6.70;83.50
74364;DHT22;62797;49.740;10.154;2022-11-24T04:34:35;6.70;83.30
74364;DHT22;62797;49.740;10.154;2022-11-24T04:37:00;6.70;83.10
74364;DHT22;62797;49.740;10.154;2022-11-24T04:39:26;6.70;83.20
74364;DHT22;62797;49.740;10.154;2022-11-24T04:41:52;6.60;82.20
74364;DHT22;62797;49.740;10.154;2022-11-24T04:44:17;6.60;82.60
74364;DHT22;62797;49.740;10.154;2022-11-24T04:46:43;6.60;83.10
74364;DHT22;62797;49.740;10.154;2022-11-24T04:49:08;6.60;82.50
74364;DHT22;62797;49.740;10.154;2022-11-24T04:51:39;6.60;82.60
74364;DHT22;62797;49.740;10.154;2022-11-24T04:54:09;6.60;83.10
74364;DHT22;62797;49.740;10.154;2022-11-24T04:56:35;6.60;83.50
74364;DHT22;62797;49.740;10.154;2022-11-24T04:59:01;6.60;82.70
74364;DHT22;62797;49.740;10.154;2022-11-24T05:01:28;6.60;82.90
74364;DHT22;62797;49.740;10.154;2022-11-24T05:03:54;6.60;82.90
74364;DHT22;62797;49.740;10.154;2022-11-24T05:06:20;6.60;82.70
74364;DHT22;62797;49.740;10.154;2022-11-24T05:08:47;6.50;82.70
74364;DHT22;62797;49.740;10.154;2022-11-24T05:11:12;6.50;83.00
74364;DHT22;62797;49.740;10.154;2022-11-24T05:13:38;6.50;83.10
74364;DHT22;62797;49.740;10.154;2022-11-24T05:16:04;6.60;83.50
74364;DHT22;62797;49.740;10.154;2022-11-24T05:18:29;6.70;82.40
74364;DHT22;62797;49.740;10.154;2022-11-24T05:20:56;6.70;82.20
74364;DHT22;62797;49.740;10.154;2022-11-24T05:23:22;6.70;82.50
74364;DHT22;62797;49.740;10.154;2022-11-24T05:25:48;6.80;81.90
74364;DHT22;62797;49.740;10.154;2022-11-24T05:28:14;6.80;81.80
74364;DHT22;62797;49.740;10.154;2022-11-24T05:30:42;6.80;82.10
74364;DHT22;62797;49.740;10.154;2022-11-24T05:33:12;6.80;82.30
74364;DHT22;62797;49.740;10.154;2022-11-24T05:35:48;6.80;82.30
74364;DHT22;62797;49.740;10.154;2022-11-24T05:38:17;6.80;82.40
74364;DHT22;62797;49.740;10.154;2022-11-24T05:40:43;6.80;82.40
74364;DHT22;62797;49.740;10.154;2022-11-24T05:43:15;6.80;82.40
74364;DHT22;62797;49.740;10.154;2022-11-24T05:45:42;6.80;82.40
74364;DHT22;62797;49.740;10.154;2022-11-24T05:48:10;6.80;82.50
74364;DHT22;62797;49.740;10.154;2022-11-24T05:50:36;6.80;82.80
74364;DHT22;62797;49.740;10.154;2022-11-24T05:53:08;6.90;82.80
74364;DHT22;62797;49.740;10.154;2022-11-24T05:55:34;7.00;82.50
74364;DHT22;62797;49.740;10.154;2022-11-24T05:58:03;7.00;82.10
74364;DHT22;62797;49.740;10.154;2022-11-24T06:00:29;7.00;81.70
74364;DHT22;62797;49.740;10.154;2022-11-24T06:02:55;7.00;81.40
74364;DHT22;62797;49.740;10.154;2022-11-24T06:05:21;7.00;79.50
74364;DHT22;62797;49.740;10.154;2022-11-24T06:07:46;6.90;80.90
74364;DHT22;62797;49.740;10.154;2022-11-24T06:10:13;6.90;81.40
74364;DHT22;62797;49.740;10.154;2022-11-24T06:12:39;7.00;81.40
74364;DHT22;62797;49.740;10.154;2022-11-24T06:15:05;6.90;81.50
74364;DHT22;62797;49.740;10.154;2022-11-24T06:17:30;6.90;81.70
74364;DHT22;62797;49.740;10.154;2022-11-24T06:19:56;6.90;81.90
74364;DHT22;62797;49.740;10.154;2022-11-24T06:22:21;6.80;81.30
74364;DHT22;62797;49.740;10.154;2022-11-24T06:24:47;6.80;81.30
74364;DHT22;62797;49.740;10.154;2022-11-24T06:27:15;6.80;81.10
74364;DHT22;62797;49.740;10.154;2022-11-24T06:29:40;6.80;81.10
74364;DHT22;62797;49.740;10.154;2022-11-24T06:32:06;6.80;81.50
74364;DHT22;62797;49.740;10.154;2022-11-24T06:34:32;6.80;81.50
74364;DHT22;62797;49.740;10.154;2022-11-24T06:36:57;6.80;81.60
74364;DHT22;62797;49.740;10.154;2022-11-24T06:39:23;6.80;81.40
74364;DHT22;62797;49.740;10.154;2022-11-24T06:41:49;6.80;81.50
74364;DHT22;62797;49.740;10.154;2022-11-24T06:44:14;6.80;81.60
74364;DHT22;62797;49.740;10.154;2022-11-24T06:46:40;6.80;81.20
74364;DHT22;62797;49.740;10.154;2022-11-24T06:49:06;6.80;81.40
74364;DHT22;62797;49.740;10.154;2022-11-24T06:51:31;6.70;80.80
74364;DHT22;62797;49.740;10.154;2022-11-24T06:53:57;6.70;80.90
74364;DHT22;62797;49.740;10.154;2022-11-24T06:56:22;6.60;80.90
74364;DHT22;62797;49.740;10.154;2022-11-24T06:58:50;6.60;81.40
74364;DHT22;62797;49.740;10.154;2022-11-24T07:01:22;6.70;81.70
74364;DHT22;62797;49.740;10.154;2022-11-24T07:03:48;6.80;81.40
74364;DHT22;62797;49.740;10.154;2022-11-24T07:06:14;6.80;81.30
74364;DHT22;62797;49.740;10.154;2022-11-24T07:08:40;6.70;81.00
74364;DHT22;62797;49.740;10.154;2022-11-24T07:11:07;6.80;81.80
74364;DHT22;62797;49.740;10.154;2022-11-24T07:13:33;6.80;81.70
74364;DHT22;62797;49.740;10.154;2022-11-24T07:15:59;6.80;82.10
74364;DHT22;62797;49.740;10.154;2022-11-24T07:18:25;6.80;82.10
74364;DHT22;62797;49.740;10.154;2022-11-24T07:20:50;6.80;82.00
74364;DHT22;62797;49.740;10.154;2022-11-24T07:23:16;6.80;82.80
74364;DHT22;62797;49.740;10.154;2022-11-24T07:25:41;6.80;82.50
74364;DHT22;62797;49.740;10.154;2022-11-24T07:28:07;6.80;82.60
74364;DHT22;62797;49.740;10.154;2022-11-24T07:30:33;6.90;82.80
74364;DHT22;62797;49.740;10.154;2022-11-24T07:33:00;6.90;82.80
74364;DHT22;62797;49.740;10.154;2022-11-24T07:35:26;7.00;82.90
74364;DHT22;62797;49.740;10.154;2022-11-24T07:37:55;7.00;82.60
74364;DHT22;62797;49.740;10.154;2022-11-24T07:40:22;7.10;82.80
74364;DHT22;62797;49.740;10.154;2022-11-24T07:42:47;7.20;82.70
74364;DHT22;62797;49.740;10.154;2022-11-24T07:45:13;7.30;82.90
74364;DHT22;62797;49.740;10.154;2022-11-24T07:47:39;7.30;82.80
74364;DHT22;62797;49.740;10.154;2022-11-24T07:50:07;7.40;82.60
74364;DHT22;62797;49.740;10.154;2022-11-24T07:52:34;7.40;82.70
74364;DHT22;62797;49.740;10.154;2022-11-24T07:55:00;7.50;82.50
74364;DHT22;62797;49.740;10.154;2022-11-24T07:57:25;7.50;82.00
74364;DHT22;62797;49.740;10.154;2022-11-24T07:59:53;7.50;82.00
74364;DHT22;62797;49.740;10.154;2022-11-24T08:02:19;7.50;82.20
74364;DHT22;62797;49.740;10.154;2022-11-24T08:04:44;7.50;82.20
74364;DHT22;62797;49.740;10.154;2022-11-24T08:07:10;7.50;81.80
74364;DHT22;62797;49.740;10.154;2022-11-24T08:09:35;7.50;82.10
74364;DHT22;62797;49.740;10.154;2022-11-24T08:12:01;7.60;82.10
74364;DHT22;62797;49.740;10.154;2022-11-24T08:14:27;7.60;82.10
74364;DHT22;62797;49.740;10.154;2022-11-24T08:16:52;7.60;81.90
74364;DHT22;62797;49.740;10.154;2022-11-24T08:19:18;7.60;81.80
74364;DHT22;62797;49.740;10.154;2022-11-24T08:21:43;7.50;82.20
74364;DHT22;62797;49.740;10.154;2022-11-24T08:24:09;7.50;81.90
74364;DHT22;62797;49.740;10.154;2022-11-24T08:26:35;7.60;82.10
74364;DHT22;62797;49.740;10.154;2022-11-24T08:29:00;7.60;82.20
74364;DHT22;62797;49.740;10.154;2022-11-24T08:31:27;7.70;82.40
74364;DHT22;62797;49.740;10.154;2022-11-24T08:33:57;7.60;82.20
74364;DHT22;62797;49.740;10.154;2022-11-24T08:36:23;7.60;82.70
74364;DHT22;62797;49.740;10.154;2022-11-24T08:38:53;7.60;82.90
74364;DHT22;62797;49.740;10.154;2022-11-24T08:41:19;7.60;82.60
74364;DHT22;62797;49.740;10.154;2022-11-24T08:43:45;7.60;83.10
74364;DHT22;62797;49.740;10.154;2022-11-24T08:46:12;7.60;83.20
74364;DHT22;62797;49.740;10.154;2022-11-24T08:48:41;7.70;83.50
74364;DHT22;62797;49.740;10.154;2022-11-24T08:51:10;7.70;83.50
74364;DHT22;62797;49.740;10.154;2022-11-24T08:53:36;7.70;83.50
74364;DHT22;62797;49.740;10.154;2022-11-24T08:56:03;7.70;83.70
74364;DHT22;62797;49.740;10.154;2022-11-24T08:58:29;7.80;83.80
74364;DHT22;62797;49.740;10.154;2022-11-24T09:00:55;7.80;83.50
74364;DHT22;62797;49.740;10.154;2022-11-24T09:03:27;7.80;83.80
74364;DHT22;62797;49.740;10.154;2022-11-24T09:05:53;7.90;84.00
74364;DHT22;62797;49.740;10.154;2022-11-24T09:08:19;7.80;83.80
74364;DHT22;62797;49.740;10.154;2022-11-24T09:10:45;7.80;83.60
74364;DHT22;62797;49.740;10.154;2022-11-24T09:13:11;7.90;84.80
74364;DHT22;62797;49.740;10.154;2022-11-24T09:15:36;7.90;83.80
74364;DHT22;62797;49.740;10.154;2022-11-24T09:18:02;7.90;83.80
74364;DHT22;62797;49.740;10.154;2022-11-24T09:20:27;7.90;83.90
74364;DHT22;62797;49.740;10.154;2022-11-24T09:22:54;7.90;83.90
74364;DHT22;62797;49.740;10.154;2022-11-24T09:25:20;7.80;83.40
74364;DHT22;62797;49.740;10.154;2022-11-24T09:27:48;7.80;83.70
74364;DHT22;62797;49.740;10.154;2022-11-24T09:30:14;7.90;83.40
74364;DHT22;62797;49.740;10.154;2022-11-24T09:32:39;7.80;83.50
74364;DHT22;62797;49.740;10.154;2022-11-24T09:35:05;7.80;83.80
74364;DHT22;62797;49.740;10.154;2022-11-24T09:37:32;7.90;83.90
74364;DHT22;62797;49.740;10.154;2022-11-24T09:39:57;7.80;83.20
74364;DHT22;62797;49.740;10.154;2022-11-24T09:45:26;7.80;82.90
74364;DHT22;62797;49.740;10.154;2022-11-24T09:48:03;7.80;83.40
74364;DHT22;62797;49.740;10.154;2022-11-24T09:50:36;7.80;83.30
74364;DHT22;62797;49.740;10.154;2022-11-24T09:53:07;7.80;82.30
74364;DHT22;62797;49.740;10.154;2022-11-24T09:55:41;7.90;82.10
74364;DHT22;62797;49.740;10.154;2022-11-24T10:01:11;7.90;81.80
74364;DHT22;62797;49.740;10.154;2022-11-24T10:03:42;7.90;81.40
74364;DHT22;62797;49.740;10.154;2022-11-24T10:06:25;7.90;81.50
74364;DHT22;62797;49.740;10.154;2022-11-24T10:09:09;7.90;79.70
74364;DHT22;62797;49.740;10.154;2022-11-24T10:20:19;8.00;80.50
74364;DHT22;62797;49.740;10.154;2022-11-24T10:22:50;8.10;80.50
74364;DHT22;62797;49.740;10.154;2022-11-24T10:25:38;8.20;81.30
74364;DHT22;62797;49.740;10.154;2022-11-24T10:28:12;8.30;81.00
74364;DHT22;62797;49.740;10.154;2022-11-24T10:30:38;8.30;80.70
74364;DHT22;62797;49.740;10.154;2022-11-24T10:33:16;8.30;80.90
74364;DHT22;62797;49.740;10.154;2022-11-24T10:35:50;8.40;79.90
74364;DHT22;62797;49.740;10.154;2022-11-24T10:38:25;8.40;79.50
74364;DHT22;62797;49.740;10.154;2022-11-24T10:41:07;8.50;79.20
74364;DHT22;62797;49.740;10.154;2022-11-24T10:43:36;8.60;80.10
74364;DHT22;62797;49.740;10.154;2022-11-24T10:46:30;8.60;78.80
74364;DHT22;62797;49.740;10.154;2022-11-24T10:48:57;8.70;77.00
74364;DHT22;62797;49.740;10.154;2022-11-24T10:56:42;8.70;76.40
74364;DHT22;62797;49.740;10.154;2022-11-24T11:01:49;8.80;76.10
74364;DHT22;62797;49.740;10.154;2022-11-24T11:04:20;8.80;76.00
74364;DHT22;62797;49.740;10.154;2022-11-24T11:06:49;8.90;76.20
74364;DHT22;62797;49.740;10.154;2022-11-24T11:09:21;8.90;73.90
74364;DHT22;62797;49.740;10.154;2022-11-24T11:11:47;9.00;75.20
74364;DHT22;62797;49.740;10.154;2022-11-24T11:14:27;9.00;75.60
74364;DHT22;62797;49.740;10.154;2022-11-24T11:16:54;9.10;74.60
74364;DHT22;62797;49.740;10.154;2022-11-24T11:19:48;9.10;75.20
74364;DHT22;62797;49.740;10.154;2022-11-24T11:22:23;9.30;75.00
74364;DHT22;62797;49.740;10.154;2022-11-24T11:27:35;9.40;72.60
74364;DHT22;62797;49.740;10.154;2022-11-24T11:30:22;9.30;72.80
74364;DHT22;62797;49.740;10.154;2022-11-24T11:32:59;9.30;71.10
74364;DHT22;62797;49.740;10.154;2022-11-24T11:35:26;9.30;70.40
74364;DHT22;62797;49.740;10.154;2022-11-24T11:37:59;9.30;71.00
74364;DHT22;62797;49.740;10.154;2022-11-24T11:40:28;9.30;70.00
74364;DHT22;62797;49.740;10.154;2022-11-24T11:43:11;9.40;71.00
74364;DHT22;62797;49.740;10.154;2022-11-24T11:45:44;9.50;69.40
74364;DHT22;62797;49.740;10.154;2022-11-24T11:48:33;9.40;67.70
74364;DHT22;62797;49.740;10.154;2022-11-24T11:51:14;9.50;69.60
74364;DHT22;62797;49.740;10.154;2022-11-24T11:56:40;9.50;68.30
74364;DHT22;62797;49.740;10.154;2022-11-24T11:59:29;9.50;68.20
74364;DHT22;62797;49.740;10.154;2022-11-24T12:15:56;9.70;58.70
74364;DHT22;62797;49.740;10.154;2022-11-24T12:18:26;9.60;59.20
74364;DHT22;62797;49.740;10.154;2022-11-24T12:21:18;9.60;60.30
74364;DHT22;62797;49.740;10.154;2022-11-24T12:26:55;9.50;58.90
74364;DHT22;62797;49.740;10.154;2022-11-24T12:37:56;9.40;60.50
74364;DHT22;62797;49.740;10.154;2022-11-24T12:43:32;9.40;62.10
74364;DHT22;62797;49.740;10.154;2022-11-24T12:51:30;9.50;58.70
74364;DHT22;62797;49.740;10.154;2022-11-24T12:53:58;9.40;59.00
74364;DHT22;62797;49.740;10.154;2022-11-24T12:56:34;9.50;59.60
74364;DHT22;62797;49.740;10.154;2022-11-24T12:59:17;9.40;61.10
74364;DHT22;62797;49.740;10.154;2022-11-24T13:02:00;9.40;58.50
74364;DHT22;62797;49.740;10.154;2022-11-24T13:07:25;9.30;63.30
74364;DHT22;62797;49.740;10.154;2022-11-24T13:12:56;9.50;62.70
74364;DHT22;62797;49.740;10.154;2022-11-24T13:15:22;9.40;65.90
74364;DHT22;62797;49.740;10.154;2022-11-24T13:17:48;9.40;64.30
74364;DHT22;62797;49.740;10.154;2022-11-24T13:22:55;9.50;64.80
74364;DHT22;62797;49.740;10.154;2022-11-24T13:25:27;9.50;62.90
74364;DHT22;62797;49.740;10.154;2022-11-24T13:27:57;9.50;63.10
74364;DHT22;62797;49.740;10.154;2022-11-24T13:35:40;9.60;61.70
74364;DHT22;62797;49.740;10.154;2022-11-24T13:38:52;9.50;62.00
74364;DHT22;62797;49.740;10.154;2022-11-24T13:49:20;9.50;63.10
74364;DHT22;62797;49.740;10.154;2022-11-24T13:51:45;9.50;65.30
74364;DHT22;62797;49.740;10.154;2022-11-24T13:54:11;9.50;66.60
74364;DHT22;62797;49.740;10.154;2022-11-24T13:56:36;9.50;66.20
74364;DHT22;62797;49.740;10.154;2022-11-24T13:59:15;9.50;66.20
74364;DHT22;62797;49.740;10.154;2022-11-24T14:01:41;9.50;66.60
74364;DHT22;62797;49.740;10.154;2022-11-24T14:04:25;9.60;67.00
74364;DHT22;62797;49.740;10.154;2022-11-24T14:14:26;9.60;65.90
74364;DHT22;62797;49.740;10.154;2022-11-24T14:19:40;9.60;64.50
74364;DHT22;62797;49.740;10.154;2022-11-24T14:22:11;9.60;65.80
74364;DHT22;62797;49.740;10.154;2022-11-24T14:24:36;9.60;62.90
74364;DHT22;62797;49.740;10.154;2022-11-24T14:27:03;9.50;62.60
74364;DHT22;62797;49.740;10.154;2022-11-24T14:29:28;9.50;64.10
74364;DHT22;62797;49.740;10.154;2022-11-24T14:32:02;9.40;63.70
74364;DHT22;62797;49.740;10.154;2022-11-24T14:34:30;9.40;65.00
74364;DHT22;62797;49.740;10.154;2022-11-24T14:36:56;9.40;63.70
74364;DHT22;62797;49.740;10.154;2022-11-24T14:39:24;9.40;64.60
74364;DHT22;62797;49.740;10.154;2022-11-24T14:41:51;9.40;63.60
74364;DHT22;62797;49.740;10.154;2022-11-24T14:44:20;9.30;64.30
74364;DHT22;62797;49.740;10.154;2022-11-24T14:46:48;9.20;64.40
74364;DHT22;62797;49.740;10.154;2022-11-24T14:49:18;9.10;64.90
74364;DHT22;62797;49.740;10.154;2022-11-24T14:51:54;9.00;65.90
74364;DHT22;62797;49.740;10.154;2022-11-24T14:54:21;9.00;65.60
74364;DHT22;62797;49.740;10.154;2022-11-24T14:57:04;8.90;66.00
74364;DHT22;62797;49.740;10.154;2022-11-24T14:59:32;8.90;66.20
74364;DHT22;62797;49.740;10.154;2022-11-24T15:01:59;8.80;67.50
74364;DHT22;62797;49.740;10.154;2022-11-24T15:04:29;8.90;68.40
74364;DHT22;62797;49.740;10.154;2022-11-24T15:07:26;8.90;67.50
74364;DHT22;62797;49.740;10.154;2022-11-24T15:09:58;8.90;67.20
74364;DHT22;62797;49.740;10.154;2022-11-24T15:14:59;8.80;67.80
74364;DHT22;62797;49.740;10.154;2022-11-24T15:17:27;8.90;67.60
74364;DHT22;62797;49.740;10.154;2022-11-24T15:20:07;8.90;67.20
74364;DHT22;62797;49.740;10.154;2022-11-24T15:22:42;8.90;67.70
74364;DHT22;62797;49.740;10.154;2022-11-24T15:25:32;8.90;66.30
74364;DHT22;62797;49.740;10.154;2022-11-24T15:27:59;8.90;66.90
74364;DHT22;62797;49.740;10.154;2022-11-24T15:30:25;8.90;67.00
74364;DHT22;62797;49.740;10.154;2022-11-24T15:32:58;8.90;66.80
74364;DHT22;62797;49.740;10.154;2022-11-24T15:35:25;8.90;66.30
74364;DHT22;62797;49.740;10.154;2022-11-24T15:37:52;8.90;66.90
74364;DHT22;62797;49.740;10.154;2022-11-24T15:40:18;8.80;67.20
74364;DHT22;62797;49.740;10.154;2022-11-24T15:42:52;8.80;67.00
74364;DHT22;62797;49.740;10.154;2022-11-24T15:45:19;8.70;67.10
74364;DHT22;62797;49.740;10.154;2022-11-24T15:47:45;8.70;67.60
74364;DHT22;62797;49.740;10.154;2022-11-24T15:50:11;8.60;67.40
74364;DHT22;62797;49.740;10.154;2022-11-24T15:52:37;8.60;67.90
74364;DHT22;62797;49.740;10.154;2022-11-24T15:55:03;8.50;68.30
74364;DHT22;62797;49.740;10.154;2022-11-24T15:57:33;8.40;68.30
74364;DHT22;62797;49.740;10.154;2022-11-24T15:59:59;8.40;67.80
74364;DHT22;62797;49.740;10.154;2022-11-24T16:02:25;8.30;68.10
74364;DHT22;62797;49.740;10.154;2022-11-24T16:04:50;8.30;67.40
74364;DHT22;62797;49.740;10.154;2022-11-24T16:07:16;8.30;68.00
74364;DHT22;62797;49.740;10.154;2022-11-24T16:09:42;8.20;68.30
74364;DHT22;62797;49.740;10.154;2022-11-24T16:12:08;8.20;68.20
74364;DHT22;62797;49.740;10.154;2022-11-24T16:14:34;8.10;67.70
74364;DHT22;62797;49.740;10.154;2022-11-24T16:17:00;8.10;68.50
74364;DHT22;62797;49.740;10.154;2022-11-24T16:19:26;8.10;69.00
74364;DHT22;62797;49.740;10.154;2022-11-24T16:21:51;8.10;68.70
74364;DHT22;62797;49.740;10.154;2022-11-24T16:24:17;8.00;68.30
74364;DHT22;62797;49.740;10.154;2022-11-24T16:26:43;8.10;68.10
74364;DHT22;62797;49.740;10.154;2022-11-24T16:29:08;8.10;68.50
74364;DHT22;62797;49.740;10.154;2022-11-24T16:31:34;8.00;69.00
74364;DHT22;62797;49.740;10.154;2022-11-24T16:34:00;8.00;69.10
74364;DHT22;62797;49.740;10.154;2022-11-24T16:36:25;8.00;68.10
74364;DHT22;62797;49.740;10.154;2022-11-24T16:38:52;8.10;68.40
74364;DHT22;62797;49.740;10.154;2022-11-24T16:41:18;8.10;68.10
74364;DHT22;62797;49.740;10.154;2022-11-24T16:43:46;8.00;68.30
74364;DHT22;62797;49.740;10.154;2022-11-24T16:46:20;8.00;68.30
74364;DHT22;62797;49.740;10.154;2022-11-24T16:48:48;8.00;68.30
74364;DHT22;62797;49.740;10.154;2022-11-24T16:51:15;7.90;68.70
74364;DHT22;62797;49.740;10.154;2022-11-24T16:53:42;7.80;68.70
74364;DHT22;62797;49.740;10.154;2022-11-24T16:56:07;7.80;69.30
74364;DHT22;62797;49.740;10.154;2022-11-24T16:58:36;7.70;69.10
74364;DHT22;62797;49.740;10.154;2022-11-24T17:01:06;7.70;68.90
74364;DHT22;62797;49.740;10.154;2022-11-24T17:03:32;7.70;69.10
74364;DHT22;62797;49.740;10.154;2022-11-24T17:05:59;7.70;68.80
74364;DHT22;62797;49.740;10.154;2022-11-24T17:08:25;7.60;68.90
74364;DHT22;62797;49.740;10.154;2022-11-24T17:10:51;7.60;69.20
74364;DHT22;62797;49.740;10.154;2022-11-24T17:13:17;7.50;69.10
74364;DHT22;62797;49.740;10.154;2022-11-24T17:15:42;7.50;69.40
74364;DHT22;62797;49.740;10.154;2022-11-24T17:18:08;7.40;69.90
74364;DHT22;62797;49.740;10.154;2022-11-24T17:20:33;7.30;70.30